Time;durP1;ratioP1;P1;durP2;ratioP2;P2;SDS_P1;SDS_P2;PMS_P1;PMS_P2;Temp;Humidity;BMP_temperature;BMP_pressure;BME280_temperature;BME280_humidity;BME280_pressure;Samples;Min_cycle;Max_cycle;Signal;HPM_P1;HPM_P2
2021/10/05 00:00:44;;;;;;;1.35;1.08;;;;;;;10.96;100.00;101270.72;6295866;28;20052;-81
2021/10/05 00:03:45;;;;;;;2.83;1.63;;;;;;;10.96;100.00;101273.34;6290835;28;20419;-79
2021/10/05 00:06:47;;;;;;;3.25;1.83;;;;;;;10.95;100.00;101267.25;6291500;28;20056;-78
2021/10/05 00:09:48;;;;;;;4.70;1.60;;;;;;;10.96;100.00;101261.06;6297242;28;20457;-78
2021/10/05 00:12:52;;;;;;;3.40;1.60;;;;;;;10.97;100.00;101259.28;6297215;28;20419;-79
2021/10/05 00:15:53;;;;;;;3.80;1.77;;;;;;;10.98;100.00;101255.72;6295797;28;20411;-79
2021/10/05 00:18:55;;;;;;;3.17;1.85;;;;;;;10.98;100.00;101248.66;6297132;28;20472;-78
2021/10/05 00:21:56;;;;;;;2.25;1.75;;;;;;;11.02;100.00;101249.38;6297631;28;20045;-79
2021/10/05 00:24:57;;;;;;;2.63;2.00;;;;;;;11.02;100.00;101236.22;6296829;28;20049;-79
2021/10/05 00:28:00;;;;;;;1.70;1.40;;;;;;;11.04;100.00;101227.34;6297652;28;20487;-79
2021/10/05 00:31:02;;;;;;;4.00;1.92;;;;;;;11.06;100.00;101225.50;6297165;28;20056;-78
2021/10/05 00:34:03;;;;;;;3.47;1.67;;;;;;;11.03;100.00;101225.63;6296895;28;20055;-78
2021/10/05 00:37:04;;;;;;;2.38;1.50;;;;;;;11.03;100.00;101230.88;6297241;28;20399;-79
2021/10/05 00:40:07;;;;;;;1.95;1.73;;;;;;;11.03;100.00;101217.75;6297197;28;20063;-78
2021/10/05 00:43:10;;;;;;;2.53;1.60;;;;;;;11.04;100.00;101214.22;6291466;28;20410;-79
2021/10/05 00:46:11;;;;;;;2.38;1.48;;;;;;;11.04;100.00;101221.25;6297262;28;20514;-78
2021/10/05 00:49:12;;;;;;;3.35;1.70;;;;;;;11.02;100.00;101213.41;6296987;28;20056;-79
2021/10/05 00:52:16;;;;;;;5.00;1.92;;;;;;;11.05;100.00;101222.94;6297801;28;20510;-79
2021/10/05 00:55:17;;;;;;;2.25;1.63;;;;;;;11.06;100.00;101222.88;6297283;28;20052;-79
2021/10/05 00:58:20;;;;;;;2.38;1.80;;;;;;;11.13;100.00;101213.78;6297122;28;20407;-79
2021/10/05 01:01:21;;;;;;;2.53;2.00;;;;;;;11.13;100.00;101210.28;6296831;28;20044;-78
2021/10/05 01:04:23;;;;;;;3.70;1.75;;;;;;;11.12;100.00;101203.31;6296706;28;20075;-79
2021/10/05 01:07:24;;;;;;;2.55;1.70;;;;;;;11.10;100.00;101202.53;6297280;28;20048;-79
2021/10/05 01:10:25;;;;;;;2.40;1.33;;;;;;;11.08;100.00;101197.34;6296934;28;20056;-79
2021/10/05 01:13:29;;;;;;;2.53;1.90;;;;;;;11.08;100.00;101200.00;6297174;28;20052;-78
2021/10/05 01:16:30;;;;;;;3.13;1.83;;;;;;;11.08;100.00;101207.00;6296971;28;20098;-79
2021/10/05 01:19:32;;;;;;;2.30;1.65;;;;;;;11.05;100.00;101192.25;6297255;28;20051;-79
2021/10/05 01:22:35;;;;;;;3.00;1.73;;;;;;;11.02;100.00;101181.84;6296796;28;20052;-79
2021/10/05 01:25:36;;;;;;;3.15;1.70;;;;;;;11.01;100.00;101180.16;6297542;28;20047;-78
2021/10/05 01:28:38;;;;;;;3.75;1.83;;;;;;;10.99;100.00;101178.50;6297593;28;20052;-79
2021/10/05 01:31:41;;;;;;;2.00;1.80;;;;;;;10.98;100.00;101179.44;6296969;28;20066;-79
2021/10/05 01:34:43;;;;;;;2.65;2.05;;;;;;;10.97;100.00;101178.59;6286232;28;20067;-79
2021/10/05 01:37:45;;;;;;;4.93;2.13;;;;;;;10.95;100.00;101177.84;6297765;28;20048;-79
2021/10/05 01:40:47;;;;;;;2.60;1.80;;;;;;;10.93;100.00;101174.41;6297137;28;20419;-78
2021/10/05 01:43:48;;;;;;;3.28;2.25;;;;;;;10.93;100.00;101158.63;6296234;28;20052;-79
2021/10/05 01:46:50;;;;;;;2.28;1.80;;;;;;;10.91;100.00;101160.50;6296549;28;20481;-79
2021/10/05 01:49:52;;;;;;;3.63;1.88;;;;;;;10.88;100.00;101158.84;6296705;28;20045;-79
2021/10/05 01:52:54;;;;;;;3.08;1.90;;;;;;;10.85;100.00;101156.34;6297252;28;20048;-78
2021/10/05 01:55:56;;;;;;;3.22;2.00;;;;;;;10.83;100.00;101144.22;6300516;28;20396;-79
2021/10/05 01:58:57;;;;;;;4.47;2.05;;;;;;;10.80;100.00;101139.97;6300938;28;20045;-79
2021/10/05 02:01:59;;;;;;;3.95;2.05;;;;;;;10.80;100.00;101125.97;6300363;28;20430;-79
2021/10/05 02:05:00;;;;;;;3.53;2.00;;;;;;;10.77;100.00;101126.97;6300141;28;20048;-78
2021/10/05 02:08:03;;;;;;;4.20;2.42;;;;;;;10.74;100.00;101123.63;6300127;28;20051;-78
2021/10/05 02:11:04;;;;;;;3.60;1.90;;;;;;;10.72;100.00;101115.84;6300186;28;20498;-79
2021/10/05 02:14:06;;;;;;;2.70;1.88;;;;;;;10.72;100.00;101112.31;6300867;28;20044;-78
2021/10/05 02:17:07;;;;;;;2.70;2.00;;;;;;;10.70;100.00;101111.56;6300085;28;20045;-79
2021/10/05 02:20:09;;;;;;;2.22;1.50;;;;;;;10.68;100.00;101108.16;6300302;28;20053;-78
2021/10/05 02:23:12;;;;;;;1.40;1.30;;;;;;;10.67;100.00;101099.41;6299764;28;20041;-79
2021/10/05 02:26:13;;;;;;;2.60;1.88;;;;;;;10.64;100.00;101107.47;6300118;28;20048;-79
2021/10/05 02:29:15;;;;;;;3.83;2.03;;;;;;;10.64;100.00;101102.22;6300395;28;20522;-78
2021/10/05 02:32:16;;;;;;;3.40;1.92;;;;;;;10.64;100.00;101102.22;6300005;28;20415;-78
2021/10/05 02:35:18;;;;;;;4.10;2.08;;;;;;;10.61;100.00;101095.31;6299339;28;20057;-79
2021/10/05 02:38:21;;;;;;;3.00;1.80;;;;;;;10.59;100.00;101080.56;6300223;28;20048;-79
2021/10/05 02:41:22;;;;;;;2.72;1.70;;;;;;;10.59;100.00;101080.56;6299758;28;20083;-79
2021/10/05 02:44:24;;;;;;;2.40;1.63;;;;;;;10.56;100.00;101076.28;6299581;28;20414;-78
2021/10/05 02:47:25;;;;;;;2.55;1.45;;;;;;;10.55;100.00;101068.47;6300349;28;20067;-78
2021/10/05 02:50:26;;;;;;;3.75;1.90;;;;;;;10.53;100.00;101075.56;6300126;28;20048;-78
2021/10/05 02:53:29;;;;;;;3.38;1.98;;;;;;;10.50;100.00;101071.31;6299412;28;20071;-79
2021/10/05 02:56:30;;;;;;;3.75;2.17;;;;;;;10.49;100.00;101060.88;6299882;28;20636;-79
2021/10/05 02:59:32;;;;;;;3.58;1.40;;;;;;;10.48;100.00;101064.44;6300018;28;20048;-79
2021/10/05 03:02:33;;;;;;;3.13;2.08;;;;;;;10.45;100.00;101061.97;6298958;28;20053;-78
2021/10/05 03:05:35;;;;;;;2.78;1.35;;;;;;;10.44;100.00;101062.88;6298990;28;20770;-79
2021/10/05 03:08:40;;;;;;;3.92;2.15;;;;;;;10.43;100.00;101048.03;6299336;28;20488;-79
2021/10/05 03:11:42;;;;;;;4.35;2.00;;;;;;;10.41;100.00;101048.13;6299252;28;20137;-79
2021/10/05 03:14:43;;;;;;;3.03;1.90;;;;;;;10.39;100.00;101042.06;6299307;28;20056;-79
2021/10/05 03:17:45;;;;;;;1.77;1.45;;;;;;;10.40;100.00;101038.50;6298530;28;20044;-79
2021/10/05 03:20:46;;;;;;;2.67;1.80;;;;;;;10.37;100.00;101031.66;6298783;28;20056;-79
2021/10/05 03:23:49;;;;;;;2.92;1.70;;;;;;;10.36;100.00;101032.56;6298451;28;20055;-79
2021/10/05 03:26:50;;;;;;;2.95;1.85;;;;;;;10.36;100.00;101027.31;6298785;28;20409;-78
2021/10/05 03:29:51;;;;;;;2.45;1.45;;;;;;;10.35;100.00;101028.22;6298530;28;20048;-79
2021/10/05 03:32:53;;;;;;;3.00;1.67;;;;;;;10.35;100.00;101019.50;6298371;28;20053;-78
2021/10/05 03:35:54;;;;;;;2.40;1.88;;;;;;;10.33;100.00;101013.47;6297753;28;20434;-79
2021/10/05 03:38:57;;;;;;;3.22;1.65;;;;;;;10.35;100.00;101009.00;6298825;28;20052;-79
2021/10/05 03:41:58;;;;;;;2.42;1.60;;;;;;;10.32;100.00;100996.03;6298356;28;20483;-78
2021/10/05 03:45:00;;;;;;;3.67;1.88;;;;;;;10.24;100.00;100987.63;6299713;28;20052;-79
2021/10/05 03:48:01;;;;;;;3.38;2.00;;;;;;;10.18;100.00;100986.16;6298448;28;20048;-79
2021/10/05 03:51:03;;;;;;;2.05;1.63;;;;;;;10.14;100.00;100988.06;6298464;28;20055;-78
2021/10/05 03:54:05;;;;;;;2.45;1.83;;;;;;;10.18;100.00;100977.41;6297750;28;20048;-79
2021/10/05 03:57:07;;;;;;;3.78;1.88;;;;;;;10.20;100.00;100976.41;6298732;28;20055;-79
2021/10/05 04:00:09;;;;;;;2.03;1.50;;;;;;;10.21;100.00;100974.63;6298466;28;20044;-79
2021/10/05 04:03:10;;;;;;;2.13;1.58;;;;;;;10.24;100.00;100979.75;6297868;28;20182;-79
2021/10/05 04:06:12;;;;;;;2.85;1.98;;;;;;;10.24;100.00;100980.63;6298035;28;20514;-79
2021/10/05 04:09:14;;;;;;;2.95;1.65;;;;;;;10.25;100.00;100979.69;6297485;28;20048;-79
2021/10/05 04:12:16;;;;;;;2.80;1.50;;;;;;;10.23;100.00;100967.53;6297467;28;20049;-79
2021/10/05 04:15:17;;;;;;;2.15;1.80;;;;;;;10.19;100.00;100963.34;6297906;28;20045;-79
2021/10/05 04:18:18;;;;;;;3.08;1.98;;;;;;;10.24;100.00;100974.50;6296404;28;20419;-79
2021/10/05 04:21:20;;;;;;;3.22;1.92;;;;;;;10.22;100.00;100961.44;6297934;28;20048;-79
2021/10/05 04:24:22;;;;;;;3.53;1.88;;;;;;;10.23;100.00;100968.38;6297360;28;20060;-79
2021/10/05 04:27:24;;;;;;;3.38;2.00;;;;;;;10.24;100.00;100959.59;6297492;28;20137;-79
2021/10/05 04:30:25;;;;;;;2.25;1.52;;;;;;;10.23;100.00;100964.91;6297566;28;20045;-79
2021/10/05 04:33:27;;;;;;;2.17;1.63;;;;;;;10.23;100.00;100955.25;6297766;28;20040;-79
2021/10/05 04:36:28;;;;;;;2.05;1.58;;;;;;;10.18;100.00;100943.28;6298119;28;20060;-79
2021/10/05 04:39:30;;;;;;;2.25;1.60;;;;;;;10.20;100.00;100944.88;6298645;28;20052;-79
2021/10/05 04:42:32;;;;;;;2.58;1.45;;;;;;;10.18;100.00;100938.88;6299604;28;20048;-79
2021/10/05 04:45:33;;;;;;;1.15;1.05;;;;;;;10.19;100.00;100935.31;6297519;28;20048;-79
2021/10/05 04:48:34;;;;;;;2.58;1.40;;;;;;;10.21;100.00;100930.81;6297769;28;20056;-78
2021/10/05 04:51:36;;;;;;;2.25;1.30;;;;;;;10.22;100.00;100929.91;6298792;28;20045;-79
2021/10/05 04:54:38;;;;;;;3.20;1.90;;;;;;;10.23;100.00;100917.63;6298712;28;20041;-79
2021/10/05 04:57:40;;;;;;;1.80;1.40;;;;;;;10.23;100.00;100912.38;6298112;28;20055;-79
2021/10/05 05:00:41;;;;;;;1.95;1.20;;;;;;;10.24;100.00;100906.19;6297574;28;20059;-79
2021/10/05 05:03:43;;;;;;;1.65;1.48;;;;;;;10.24;100.00;100900.94;6298238;28;20056;-79
2021/10/05 05:06:45;;;;;;;3.50;1.92;;;;;;;10.24;100.00;100899.19;6301637;28;20051;-79
2021/10/05 05:09:48;;;;;;;2.05;1.50;;;;;;;10.26;100.00;100901.75;6302250;28;20040;-79
2021/10/05 05:12:49;;;;;;;2.05;1.55;;;;;;;10.24;100.00;100898.31;6303180;28;20052;-80
2021/10/05 05:15:50;;;;;;;2.28;1.23;;;;;;;10.23;100.00;100902.72;6303368;28;20048;-79
2021/10/05 05:18:52;;;;;;;2.13;1.52;;;;;;;10.24;100.00;100899.19;6303581;28;20052;-79
2021/10/05 05:21:55;;;;;;;1.35;1.20;;;;;;;10.21;100.00;100894.06;6303074;28;20513;-79
2021/10/05 05:24:57;;;;;;;2.03;1.30;;;;;;;10.18;100.00;100888.97;6302327;28;20041;-79
2021/10/05 05:27:59;;;;;;;3.67;1.33;;;;;;;10.20;100.00;100891.50;6302714;28;20491;-79
2021/10/05 05:31:00;;;;;;;2.60;1.30;;;;;;;10.16;100.00;100888.19;6308230;28;20048;-80
2021/10/05 05:34:01;;;;;;;1.77;1.10;;;;;;;10.18;100.00;100903.88;6307157;28;20045;-79
2021/10/05 05:37:06;;;;;;;1.83;1.27;;;;;;;10.13;100.00;100891.81;6307970;28;20060;-79
2021/10/05 05:40:10;;;;;;;1.30;1.20;;;;;;;10.11;100.00;100891.03;6306431;28;20110;-78
2021/10/05 05:43:11;;;;;;;2.55;1.63;;;;;;;10.10;100.00;100891.97;6305812;28;20059;-79
2021/10/05 05:46:13;;;;;;;2.70;1.83;;;;;;;10.11;100.00;100895.44;6307435;28;20442;-79
2021/10/05 05:49:14;;;;;;;2.53;1.70;;;;;;;10.14;100.00;100897.94;6308368;28;20056;-79
2021/10/05 05:52:15;;;;;;;3.40;1.60;;;;;;;10.12;100.00;100894.50;6307537;28;20059;-79
2021/10/05 05:55:18;;;;;;;4.82;2.63;;;;;;;10.07;100.00;100891.25;6309775;22;20053;-78
2021/10/05 05:58:19;;;;;;;2.58;1.75;;;;;;;10.11;100.00;100893.66;6236712;28;20050;-80
2021/10/05 06:01:22;;;;;;;2.97;1.92;;;;;;;10.11;100.00;100879.69;6246193;28;20137;-76
2021/10/05 06:04:23;;;;;;;3.30;2.00;;;;;;;10.09;100.00;100882.41;6242569;28;20168;-78
2021/10/05 06:07:24;;;;;;;4.55;1.60;;;;;;;10.13;100.00;100875.22;6251007;28;20063;-77
2021/10/05 06:10:27;;;;;;;3.17;1.90;;;;;;;10.11;100.00;100874.44;6251300;28;20053;-79
2021/10/05 06:13:28;;;;;;;6.25;1.42;;;;;;;10.15;100.00;100871.59;6250967;28;20524;-78
2021/10/05 06:16:30;;;;;;;2.10;1.50;;;;;;;10.21;100.00;100880.91;6250848;28;20045;-77
2021/10/05 06:19:31;;;;;;;2.13;1.63;;;;;;;10.25;100.00;100877.25;6250936;28;20049;-77
2021/10/05 06:22:33;;;;;;;3.10;1.75;;;;;;;10.30;100.00;100877.88;6250924;28;20539;-77
2021/10/05 06:25:40;;;;;;;2.78;1.73;;;;;;;10.36;100.00;100877.59;6250297;28;20420;-78
2021/10/05 06:28:42;;;;;;;2.10;1.48;;;;;;;10.40;100.00;100873.00;6250718;28;20089;-79
2021/10/05 06:31:44;;;;;;;1.90;1.70;;;;;;;10.43;100.00;100875.47;6251014;28;20057;-77
2021/10/05 06:34:46;;;;;;;1.73;1.30;;;;;;;10.48;100.00;100876.09;6249951;28;20048;-75
2021/10/05 06:37:49;;;;;;;1.30;1.02;;;;;;;10.50;100.00;100876.88;6250276;28;20081;-78
2021/10/05 06:40:52;;;;;;;3.15;1.70;;;;;;;10.51;100.00;100870.69;6248884;28;20511;-77
2021/10/05 06:43:53;;;;;;;3.65;1.50;;;;;;;10.53;100.00;100871.44;6249616;28;20049;-76
2021/10/05 06:46:54;;;;;;;1.48;1.38;;;;;;;10.55;100.00;100860.88;6250000;28;20053;-77
2021/10/05 06:49:57;;;;;;;2.80;1.67;;;;;;;10.57;100.00;100854.59;6249792;28;20053;-76
2021/10/05 06:52:59;;;;;;;1.55;1.25;;;;;;;10.62;100.00;100859.63;6250399;28;20045;-77
2021/10/05 06:56:02;;;;;;;2.33;1.30;;;;;;;10.65;100.00;100857.69;6249746;28;20049;-77
2021/10/05 06:59:03;;;;;;;2.08;1.60;;;;;;;10.70;100.00;100856.59;6250219;28;20056;-79
2021/10/05 07:02:05;;;;;;;2.20;1.25;;;;;;;10.77;100.00;100848.31;6250169;28;20080;-77
2021/10/05 07:05:08;;;;;;;4.28;1.60;;;;;;;10.81;100.00;100847.25;6249878;28;20057;-78
2021/10/05 07:08:10;;;;;;;1.85;1.20;;;;;;;10.85;100.00;100840.00;6250172;28;20053;-77
2021/10/05 07:11:13;;;;;;;1.58;1.25;;;;;;;10.85;100.00;100830.34;6249996;28;20078;-77
2021/10/05 07:14:14;;;;;;;4.70;1.15;;;;;;;10.89;100.00;100836.28;6249237;28;20053;-77
2021/10/05 07:17:15;;;;;;;3.13;1.30;;;;;;;10.91;100.00;100832.66;6249865;28;20049;-77
2021/10/05 07:20:17;;;;;;;1.33;0.88;;;;;;;11.01;100.00;100840.06;6246252;28;20053;-77
2021/10/05 07:23:18;;;;;;;1.60;1.00;;;;;;;11.01;100.00;100827.75;6249486;28;20061;-78
2021/10/05 07:26:21;;;;;;;1.10;0.80;;;;;;;11.11;100.00;100828.09;6249237;28;20054;-77
2021/10/05 07:29:22;;;;;;;3.65;1.17;;;;;;;11.17;100.00;100822.50;6248836;28;20072;-76
2021/10/05 07:32:24;;;;;;;1.17;0.90;;;;;;;11.25;100.00;100822.09;6248857;28;20076;-76
2021/10/05 07:35:25;;;;;;;1.90;0.88;;;;;;;11.31;100.00;100809.47;6248084;28;20041;-75
2021/10/05 07:38:27;;;;;;;1.95;1.25;;;;;;;11.36;100.00;100807.44;6248515;28;20052;-75
2021/10/05 07:41:30;;;;;;;1.05;0.80;;;;;;;11.44;100.00;100799.09;6248142;28;20045;-76
2021/10/05 07:44:32;;;;;;;1.17;0.98;;;;;;;11.50;100.00;100792.66;6247919;28;20053;-76
2021/10/05 07:47:34;;;;;;;1.25;1.08;;;;;;;11.58;100.00;100788.66;6248155;28;20056;-76
2021/10/05 07:50:35;;;;;;;3.83;1.02;;;;;;;11.63;100.00;100783.13;6247927;28;20053;-75
2021/10/05 07:53:37;;;;;;;1.17;0.80;;;;;;;11.69;100.00;100785.41;6247868;28;20057;-76
2021/10/05 07:56:39;;;;;;;1.15;0.90;;;;;;;11.72;100.00;100785.22;6247621;28;20057;-76
2021/10/05 07:59:41;;;;;;;0.75;0.50;;;;;;;11.78;100.00;100776.13;6247853;28;20049;-76
2021/10/05 08:02:44;;;;;;;2.35;0.93;;;;;;;11.85;100.00;100777.47;6248557;28;20056;-76
2021/10/05 08:05:46;;;;;;;1.17;0.90;;;;;;;11.90;100.00;100778.09;6246941;28;20062;-77
2021/10/05 08:08:47;;;;;;;2.03;0.73;;;;;;;11.93;100.00;100780.53;6247861;28;20459;-76
2021/10/05 08:11:50;;;;;;;1.35;0.60;;;;;;;11.96;100.00;100769.81;6247860;28;20046;-76
2021/10/05 08:14:52;;;;;;;0.60;0.50;;;;;;;11.99;100.00;100764.38;6247079;28;20041;-76
2021/10/05 08:17:55;;;;;;;0.80;0.57;;;;;;;12.01;100.00;100764.28;6247740;28;20056;-75
2021/10/05 08:20:58;;;;;;;0.52;0.52;;;;;;;12.05;100.00;100752.63;6237492;28;20104;-77
2021/10/05 08:23:59;;;;;;;0.70;0.68;;;;;;;12.03;100.00;100754.47;6238864;28;20516;-76
2021/10/05 08:27:05;;;;;;;1.88;0.60;;;;;;;12.03;100.00;100751.84;6223586;28;20053;-76
2021/10/05 08:30:08;;;;;;;0.40;0.40;;;;;;;12.04;100.00;100757.06;6223628;28;20397;-77
2021/10/05 08:33:10;;;;;;;0.55;0.38;;;;;;;12.08;100.00;100757.69;6224476;28;20050;-77
2021/10/05 08:36:11;;;;;;;0.73;0.60;;;;;;;12.12;100.00;100756.56;6227443;28;20053;-76
2021/10/05 08:39:14;;;;;;;0.82;0.60;;;;;;;12.18;100.00;100749.16;6248838;28;20056;-77
2021/10/05 08:42:20;;;;;;;0.50;0.50;;;;;;;12.23;100.00;100748.88;6249126;28;20488;-77
2021/10/05 08:45:23;;;;;;;0.60;0.60;;;;;;;12.29;100.00;100750.31;6248412;28;20050;-77
2021/10/05 08:48:28;;;;;;;0.57;0.40;;;;;;;12.31;100.00;100741.38;6248095;28;20049;-76
2021/10/05 08:51:30;;;;;;;0.55;0.55;;;;;;;12.42;100.00;100733.66;6247358;28;20053;-76
2021/10/05 08:54:31;;;;;;;1.58;0.68;;;;;;;12.42;100.00;100722.25;6232110;28;20061;-77
2021/10/05 08:57:34;;;;;;;0.95;0.70;;;;;;;12.43;100.00;100721.31;6224194;28;20060;-76
2021/10/05 09:00:37;;;;;;;0.88;0.80;;;;;;;12.44;100.00;100723.00;6224278;28;20046;-77
2021/10/05 09:03:48;;;;;;;1.42;0.55;;;;;;;12.49;100.00;100717.44;6226239;28;20046;-79
2021/10/05 09:06:54;;;;;;;0.45;0.45;;;;;;;12.53;100.00;100713.69;6228232;28;20067;-76
2021/10/05 09:09:57;;;;;;;0.30;0.30;;;;;;;12.53;100.00;100711.03;6228302;28;20054;-78
2021/10/05 09:13:00;;;;;;;1.88;0.60;;;;;;;12.61;100.00;100714.06;6229199;28;20045;-79
2021/10/05 09:16:02;;;;;;;1.17;0.50;;;;;;;12.53;100.00;100711.88;6228426;28;20050;-78
2021/10/05 09:19:06;;;;;;;0.80;0.60;;;;;;;12.53;100.00;100703.13;6231277;28;20501;-78
2021/10/05 09:22:16;;;;;;;0.95;0.50;;;;;;;12.56;100.00;100706.44;6229856;28;20057;-78
2021/10/05 09:25:27;;;;;;;0.50;0.50;;;;;;;12.57;100.00;100708.13;6231741;28;20050;-78
2021/10/05 09:28:30;;;;;;;0.40;0.40;;;;;;;12.61;100.00;100703.50;6244444;28;20056;-77
2021/10/05 09:31:31;;;;;;;0.45;0.43;;;;;;;12.64;100.00;100696.25;6256746;28;20049;-78
2021/10/05 09:34:35;;;;;;;1.15;0.47;;;;;;;12.67;100.00;100689.94;6253839;28;20056;-77
2021/10/05 09:37:37;;;;;;;0.32;0.32;;;;;;;12.68;100.00;100686.38;6257874;28;20540;-79
2021/10/05 09:40:39;;;;;;;0.30;0.30;;;;;;;12.67;100.00;100684.66;6259031;28;20050;-79
2021/10/05 09:43:42;;;;;;;0.52;0.52;;;;;;;12.76;100.00;100678.81;6247297;28;20416;-79
2021/10/05 09:46:49;;;;;;;2.00;0.68;;;;;;;12.76;100.00;100672.69;6248815;28;20045;-78
2021/10/05 09:49:51;;;;;;;2.05;0.60;;;;;;;12.84;100.00;100670.41;6230073;28;20061;-79
2021/10/05 09:52:54;;;;;;;1.15;0.50;;;;;;;12.94;100.00;100668.88;6247895;28;20504;-80
2021/10/05 09:55:55;;;;;;;0.63;0.55;;;;;;;12.97;100.00;100663.41;6254486;28;20411;-79
2021/10/05 09:58:58;;;;;;;0.52;0.47;;;;;;;13.03;100.00;100664.81;6255940;28;20072;-79
2021/10/05 10:02:00;;;;;;;1.23;0.57;;;;;;;13.08;100.00;100665.34;6229296;28;20052;-76
2021/10/05 10:05:02;;;;;;;0.40;0.40;;;;;;;13.21;100.00;100661.81;6227998;28;20049;-78
2021/10/05 10:08:04;;;;;;;0.68;0.57;;;;;;;13.29;100.00;100649.94;6228298;28;20045;-78
2021/10/05 10:11:06;;;;;;;0.90;0.60;;;;;;;13.31;100.00;100648.91;6227950;28;20049;-78
2021/10/05 10:14:09;;;;;;;1.20;0.60;;;;;;;13.35;100.00;100652.16;6227223;28;20050;-78
2021/10/05 10:17:10;;;;;;;0.65;0.57;;;;;;;13.34;100.00;100643.41;6236535;28;20064;-80
2021/10/05 10:20:22;;;;;;;0.63;0.63;;;;;;;13.38;100.00;100641.41;6253856;28;20049;-79
2021/10/05 10:23:26;;;;;;;1.58;0.63;;;;;;;13.57;100.00;100636.56;6254103;28;20402;-79
2021/10/05 10:26:28;;;;;;;0.40;0.40;;;;;;;13.64;100.00;100627.31;6254169;28;20632;-79
2021/10/05 10:29:31;;;;;;;0.65;0.50;;;;;;;13.74;100.00;100626.69;6255652;28;20411;-80
2021/10/05 10:32:43;;;;;;;0.85;0.43;;;;;;;13.86;100.00;100621.41;6254380;28;20508;-80
2021/10/05 10:35:49;;;;;;;0.98;0.77;;;;;;;13.94;100.00;100612.91;6254885;28;20155;-79
2021/10/05 10:38:50;;;;;;;0.43;0.40;;;;;;;13.96;99.21;100611.03;6253719;28;20381;-78
2021/10/05 10:42:03;;;;;;;0.50;0.50;;;;;;;14.05;99.52;100607.75;6254411;28;20052;-79
2021/10/05 10:45:17;;;;;;;0.60;0.50;;;;;;;14.12;99.74;100614.28;6253676;28;20045;-78
2021/10/05 10:48:32;;;;;;;0.63;0.50;;;;;;;14.21;99.83;100605.69;6253794;28;20053;-78
2021/10/05 10:51:39;;;;;;;1.02;0.32;;;;;;;14.25;100.00;100606.34;6251488;28;20136;-79
2021/10/05 10:54:52;;;;;;;0.80;0.60;;;;;;;14.30;99.27;100603.38;6251337;28;20061;-80
2021/10/05 10:57:55;;;;;;;0.90;0.50;;;;;;;14.27;98.28;100593.03;6252937;28;20053;-81
2021/10/05 11:00:58;;;;;;;0.43;0.43;;;;;;;14.31;98.63;100598.00;6253585;28;20049;-80
2021/10/05 11:04:02;;;;;;;0.57;0.57;;;;;;;14.31;99.27;100590.06;6253365;28;20053;-80
2021/10/05 11:07:04;;;;;;;0.75;0.70;;;;;;;14.41;98.99;100591.09;6251964;28;20049;-77
2021/10/05 11:10:07;;;;;;;0.45;0.45;;;;;;;14.53;99.05;100584.06;6250857;28;20053;-78
2021/10/05 11:13:11;;;;;;;0.57;0.57;;;;;;;14.55;97.65;100589.28;6252671;28;20057;-79
2021/10/05 11:16:13;;;;;;;0.68;0.55;;;;;;;14.59;97.56;100588.94;6251883;28;20045;-76
2021/10/05 11:19:18;;;;;;;1.10;0.52;;;;;;;14.53;97.14;100584.06;6252601;28;20424;-78
2021/10/05 11:22:20;;;;;;;0.40;0.40;;;;;;;14.57;98.54;100579.41;6250049;28;20042;-77
2021/10/05 11:25:21;;;;;;;0.50;0.30;;;;;;;14.57;97.68;100566.19;6251510;28;20408;-79
2021/10/05 11:28:25;;;;;;;1.48;0.50;;;;;;;14.76;98.48;100557.75;6250201;28;20060;-78
2021/10/05 11:31:29;;;;;;;1.27;0.75;;;;;;;15.00;95.18;100561.25;6250144;28;20072;-79
2021/10/05 11:34:30;;;;;;;0.50;0.50;;;;;;;15.09;94.23;100559.72;6251913;28;20045;-77
2021/10/05 11:37:34;;;;;;;2.70;0.50;;;;;;;15.11;93.77;100555.13;6251385;28;20492;-80
2021/10/05 11:40:35;;;;;;;0.30;0.30;;;;;;;15.07;92.25;100548.38;6250825;28;20079;-79
2021/10/05 11:43:39;;;;;;;0.30;0.30;;;;;;;14.95;91.48;100548.34;6250086;28;20467;-79
2021/10/05 11:46:52;;;;;;;0.63;0.50;;;;;;;14.94;92.73;100540.50;6250501;28;20045;-79
2021/10/05 11:49:57;;;;;;;0.30;0.30;;;;;;;14.94;94.07;100535.22;6251103;28;20057;-78
2021/10/05 11:52:58;;;;;;;0.55;0.52;;;;;;;14.88;93.07;100533.88;6250038;28;20683;-78
2021/10/05 11:56:04;;;;;;;0.63;0.40;;;;;;;14.86;93.61;100521.75;6282271;22;20040;-74
2021/10/05 11:59:05;;;;;;;2.05;0.73;;;;;;;14.78;93.78;100517.00;6298014;28;20154;-73
2021/10/05 12:02:11;;;;;;;0.22;0.22;;;;;;;14.73;95.28;100508.56;6315214;28;20059;-73
2021/10/05 12:05:21;;;;;;;0.20;0.20;;;;;;;14.74;95.93;100512.06;6310798;28;20044;-73
2021/10/05 12:08:25;;;;;;;0.75;0.57;;;;;;;14.76;95.86;100500.44;6296978;28;20407;-74
2021/10/05 12:11:37;;;;;;;0.50;0.38;;;;;;;14.77;96.12;100504.75;6297041;28;20494;-74
2021/10/05 12:14:42;;;;;;;0.30;0.30;;;;;;;14.74;96.50;100504.13;6296514;28;20044;-74
2021/10/05 12:17:45;;;;;;;0.52;0.38;;;;;;;14.76;95.93;100505.72;6297290;28;20044;-75
2021/10/05 12:21:01;;;;;;;0.40;0.40;;;;;;;14.82;93.62;100491.19;6296862;28;20056;-73
2021/10/05 12:24:03;;;;;;;0.38;0.38;;;;;;;14.92;93.02;100474.47;6296581;28;20059;-73
2021/10/05 12:27:05;;;;;;;0.30;0.28;;;;;;;15.00;93.57;100475.72;6296667;28;20057;-73
2021/10/05 12:30:11;;;;;;;0.57;0.40;;;;;;;15.03;92.79;100478.09;6293555;28;20059;-73
2021/10/05 12:33:16;;;;;;;0.30;0.30;;;;;;;15.12;92.63;100472.09;6296498;28;20392;-73
2021/10/05 12:36:20;;;;;;;0.75;0.47;;;;;;;15.14;92.84;100470.22;6296375;28;20067;-73
2021/10/05 12:39:21;;;;;;;0.38;0.38;;;;;;;15.17;90.56;100460.22;6287420;28;20052;-74
2021/10/05 12:42:23;;;;;;;2.58;0.30;;;;;;;15.22;90.08;100459.88;6280930;28;20044;-74
2021/10/05 12:45:26;;;;;;;0.35;0.22;;;;;;;15.40;90.47;100449.66;6296048;28;20055;-74
2021/10/05 12:48:35;;;;;;;0.68;0.50;;;;;;;15.68;89.83;100435.09;6271953;28;20049;-75
2021/10/05 12:51:36;;;;;;;0.50;0.40;;;;;;;16.08;88.77;100435.41;6288690;28;20053;-76
2021/10/05 12:54:37;;;;;;;0.70;0.30;;;;;;;16.35;87.88;100439.38;6288936;28;20040;-75
2021/10/05 12:57:39;;;;;;;0.30;0.28;;;;;;;16.27;85.80;100429.44;6287725;28;20514;-75
2021/10/05 13:00:40;;;;;;;1.35;0.40;;;;;;;16.08;85.93;100426.56;6273999;28;20048;-75
2021/10/05 13:03:44;;;;;;;0.30;0.30;;;;;;;15.87;84.05;100419.41;6296268;28;20048;-75
2021/10/05 13:06:45;;;;;;;0.55;0.40;;;;;;;15.71;85.65;100416.28;6296518;28;20055;-74
2021/10/05 13:09:47;;;;;;;0.52;0.40;;;;;;;15.68;87.16;100405.97;6289272;28;20475;-74
2021/10/05 13:12:49;;;;;;;0.43;0.35;;;;;;;15.68;86.82;100400.66;6271174;28;20053;-74
2021/10/05 13:15:50;;;;;;;0.20;0.20;;;;;;;15.91;86.19;100390.88;6271000;28;20503;-74
2021/10/05 13:18:53;;;;;;;0.30;0.20;;;;;;;16.21;85.40;100396.31;6271200;28;20412;-75
2021/10/05 13:21:54;;;;;;;0.40;0.30;;;;;;;16.50;82.29;100387.72;6271097;28;20049;-75
2021/10/05 13:24:56;;;;;;;0.20;0.20;;;;;;;16.51;82.70;100380.59;6289308;28;20045;-74
2021/10/05 13:27:58;;;;;;;0.20;0.20;;;;;;;16.58;82.28;100377.31;6295941;28;20068;-74
2021/10/05 13:30:59;;;;;;;0.15;0.15;;;;;;;16.78;79.34;100366.84;6295884;28;20483;-74
2021/10/05 13:34:02;;;;;;;0.50;0.40;;;;;;;16.47;79.01;100375.56;6293921;28;20052;-74
2021/10/05 13:37:04;;;;;;;0.20;0.20;;;;;;;16.17;79.80;100368.38;6294914;28;20045;-74
2021/10/05 13:40:07;;;;;;;0.65;0.30;;;;;;;15.93;82.00;100371.19;6288400;28;20052;-74
2021/10/05 13:43:08;;;;;;;0.28;0.28;;;;;;;15.72;81.27;100372.97;6296002;28;20055;-74
2021/10/05 13:46:10;;;;;;;0.50;0.40;;;;;;;15.67;83.40;100367.19;6295358;28;20047;-74
2021/10/05 13:49:12;;;;;;;0.50;0.40;;;;;;;16.03;84.99;100370.44;6296584;28;20048;-75
2021/10/05 13:52:14;;;;;;;1.40;0.30;;;;;;;16.68;80.63;100369.41;6294683;28;20053;-75
2021/10/05 13:55:15;;;;;;;0.68;0.50;;;;;;;17.22;80.07;100360.38;6300056;28;20040;-77
2021/10/05 13:58:16;;;;;;;0.20;0.20;;;;;;;17.60;78.18;100361.44;6300500;28;20059;-76
2021/10/05 14:01:18;;;;;;;0.13;0.13;;;;;;;17.59;76.28;100355.31;6300014;28;20056;-77